<?xml version="1.0" encoding="UTF-8" standalone="no" ?>
<gpx xmlns="http://www.topografix.com/GPX/1/1" xmlns:xsi="http://www.w3.org/2001/XMLSchema-instance" xsi:schemaLocation="http://www.topografix.com/GPX/1/1 http://www.topografix.com/GPX/1/1/gpx.xsd" version="1.1" creator="VisuGPX - https://www.visugpx.com">
  <metadata>
    <name>Ventoux</name>
    <desc><![CDATA[Départ Rémuzat Col d\'EY, col de Fontaube, col des Aires, Ventoux par Sault, descente sur Malaucène, Vaison la Romaine, dernier col de la croix rouge par Chateauneuf de la Bordette.]]></desc>
  </metadata>
  <trk>
    <name><![CDATA[ACTIVE LOG150555]]></name>
    <trkseg>
      <trkpt lat="44.15221" lon="5.31827">
        <ele>1427.858</ele>
        <time>2013-05-06T13:05:55Z</time>
      </trkpt>
      <trkpt lat="44.1522" lon="5.31822">
        <ele>1428.232</ele>
        <time>2013-05-06T13:05:57Z</time>
      </trkpt>
      <trkpt lat="44.15215" lon="5.31801">
        <ele>1429.634</ele>
        <time>2013-05-06T13:06:07Z</time>
      </trkpt>
      <trkpt lat="44.1521" lon="5.31782">
        <ele>1430.236</ele>
        <time>2013-05-06T13:06:15Z</time>
      </trkpt>
      <trkpt lat="44.15202" lon="5.31747">
        <ele>1432.939</ele>
        <time>2013-05-06T13:06:28Z</time>
      </trkpt>
      <trkpt lat="44.15191" lon="5.31715">
        <ele>1435.251</ele>
        <time>2013-05-06T13:06:40Z</time>
      </trkpt>
      <trkpt lat="44.15179" lon="5.31685">
        <ele>1437.833</ele>
        <time>2013-05-06T13:06:52Z</time>
      </trkpt>
      <trkpt lat="44.15168" lon="5.31654">
        <ele>1438.963</ele>
        <time>2013-05-06T13:07:04Z</time>
      </trkpt>
      <trkpt lat="44.15159" lon="5.31629">
        <ele>1440.314</ele>
        <time>2013-05-06T13:07:14Z</time>
      </trkpt>
      <trkpt lat="44.15149" lon="5.31603">
        <ele>1441.838</ele>
        <time>2013-05-06T13:07:24Z</time>
      </trkpt>
      <trkpt lat="44.1514" lon="5.31575">
        <ele>1445.034</ele>
        <time>2013-05-06T13:07:35Z</time>
      </trkpt>
      <trkpt lat="44.15131" lon="5.31543">
        <ele>1447.471</ele>
        <time>2013-05-06T13:07:47Z</time>
      </trkpt>
      <trkpt lat="44.15122" lon="5.31511">
        <ele>1448.586</ele>
        <time>2013-05-06T13:07:59Z</time>
      </trkpt>
      <trkpt lat="44.15109" lon="5.3148">
        <ele>1449.436</ele>
        <time>2013-05-06T13:08:12Z</time>
      </trkpt>
      <trkpt lat="44.15096" lon="5.31447">
        <ele>1451.139</ele>
        <time>2013-05-06T13:08:25Z</time>
      </trkpt>
      <trkpt lat="44.15094" lon="5.31436">
        <ele>1452.517</ele>
        <time>2013-05-06T13:08:29Z</time>
      </trkpt>
      <trkpt lat="44.15098" lon="5.3141">
        <ele>1454.437</ele>
        <time>2013-05-06T13:08:38Z</time>
      </trkpt>
      <trkpt lat="44.15112" lon="5.31389">
        <ele>1456.218</ele>
        <time>2013-05-06T13:08:48Z</time>
      </trkpt>
      <trkpt lat="44.15132" lon="5.31368">
        <ele>1459.372</ele>
        <time>2013-05-06T13:08:59Z</time>
      </trkpt>
      <trkpt lat="44.15156" lon="5.31353">
        <ele>1460.136</ele>
        <time>2013-05-06T13:09:12Z</time>
      </trkpt>
      <trkpt lat="44.15176" lon="5.31354">
        <ele>1461.086</ele>
        <time>2013-05-06T13:09:22Z</time>
      </trkpt>
      <trkpt lat="44.15181" lon="5.31355">
        <ele>1462.859</ele>
        <time>2013-05-06T13:09:25Z</time>
      </trkpt>
      <trkpt lat="44.15207" lon="5.31359">
        <ele>1464.712</ele>
        <time>2013-05-06T13:09:39Z</time>
      </trkpt>
      <trkpt lat="44.15231" lon="5.31367">
        <ele>1467.47</ele>
        <time>2013-05-06T13:09:53Z</time>
      </trkpt>
      <trkpt lat="44.1524" lon="5.31372">
        <ele>1466.165</ele>
        <time>2013-05-06T13:09:58Z</time>
      </trkpt>
      <trkpt lat="44.15245" lon="5.31376">
        <ele>1469.547</ele>
        <time>2013-05-06T13:10:01Z</time>
      </trkpt>
      <trkpt lat="44.1526" lon="5.31388">
        <ele>1471.05</ele>
        <time>2013-05-06T13:10:11Z</time>
      </trkpt>
      <trkpt lat="44.15278" lon="5.31406">
        <ele>1473.901</ele>
        <time>2013-05-06T13:10:23Z</time>
      </trkpt>
      <trkpt lat="44.15289" lon="5.31419">
        <ele>1475.39</ele>
        <time>2013-05-06T13:10:31Z</time>
      </trkpt>
      <trkpt lat="44.153" lon="5.3143">
        <ele>1476.2</ele>
        <time>2013-05-06T13:10:38Z</time>
      </trkpt>
      <trkpt lat="44.15316" lon="5.31445">
        <ele>1476.837</ele>
        <time>2013-05-06T13:10:48Z</time>
      </trkpt>
      <trkpt lat="44.15333" lon="5.31453">
        <ele>1478.814</ele>
        <time>2013-05-06T13:10:58Z</time>
      </trkpt>
      <trkpt lat="44.15351" lon="5.31462">
        <ele>1480.629</ele>
        <time>2013-05-06T13:11:08Z</time>
      </trkpt>
      <trkpt lat="44.15372" lon="5.31473">
        <ele>1482.624</ele>
        <time>2013-05-06T13:11:19Z</time>
      </trkpt>
      <trkpt lat="44.15382" lon="5.3148">
        <ele>1483.794</ele>
        <time>2013-05-06T13:11:25Z</time>
      </trkpt>
      <trkpt lat="44.15404" lon="5.31495">
        <ele>1485.376</ele>
        <time>2013-05-06T13:11:37Z</time>
      </trkpt>
      <trkpt lat="44.15407" lon="5.31498">
        <ele>1484.416</ele>
        <time>2013-05-06T13:11:39Z</time>
      </trkpt>
      <trkpt lat="44.1542" lon="5.31506">
        <ele>1485.873</ele>
        <time>2013-05-06T13:11:46Z</time>
      </trkpt>
      <trkpt lat="44.15436" lon="5.31517">
        <ele>1487.387</ele>
        <time>2013-05-06T13:11:56Z</time>
      </trkpt>
      <trkpt lat="44.15444" lon="5.31523">
        <ele>1489.604</ele>
        <time>2013-05-06T13:12:02Z</time>
      </trkpt>
      <trkpt lat="44.15449" lon="5.31527">
        <ele>1488.642</ele>
        <time>2013-05-06T13:12:06Z</time>
      </trkpt>
      <trkpt lat="44.15463" lon="5.31536">
        <ele>1489.347</ele>
        <time>2013-05-06T13:12:15Z</time>
      </trkpt>
      <trkpt lat="44.15473" lon="5.31542">
        <ele>1491.156</ele>
        <time>2013-05-06T13:12:21Z</time>
      </trkpt>
      <trkpt lat="44.15487" lon="5.31544">
        <ele>1492.297</ele>
        <time>2013-05-06T13:12:29Z</time>
      </trkpt>
      <trkpt lat="44.15499" lon="5.31538">
        <ele>1491.798</ele>
        <time>2013-05-06T13:12:36Z</time>
      </trkpt>
      <trkpt lat="44.155" lon="5.31535">
        <ele>1492.537</ele>
        <time>2013-05-06T13:12:38Z</time>
      </trkpt>
      <trkpt lat="44.15493" lon="5.31507">
        <ele>1492.995</ele>
        <time>2013-05-06T13:12:46Z</time>
      </trkpt>
      <trkpt lat="44.15491" lon="5.31501">
        <ele>1492.949</ele>
        <time>2013-05-06T13:12:47Z</time>
      </trkpt>
      <trkpt lat="44.15481" lon="5.31468">
        <ele>1493.344</ele>
        <time>2013-05-06T13:12:52Z</time>
      </trkpt>
      <trkpt lat="44.15479" lon="5.31437">
        <ele>1494.106</ele>
        <time>2013-05-06T13:12:56Z</time>
      </trkpt>
      <trkpt lat="44.15483" lon="5.31367">
        <ele>1498.169</ele>
        <time>2013-05-06T13:13:04Z</time>
      </trkpt>
      <trkpt lat="44.15488" lon="5.31284">
        <ele>1500.3</ele>
        <time>2013-05-06T13:13:13Z</time>
      </trkpt>
      <trkpt lat="44.15493" lon="5.31267">
        <ele>1501.173</ele>
        <time>2013-05-06T13:13:15Z</time>
      </trkpt>
      <trkpt lat="44.15509" lon="5.31232">
        <ele>1503.603</ele>
        <time>2013-05-06T13:13:21Z</time>
      </trkpt>
      <trkpt lat="44.15519" lon="5.31225">
        <ele>1506.381</ele>
        <time>2013-05-06T13:13:25Z</time>
      </trkpt>
      <trkpt lat="44.15541" lon="5.31221">
        <ele>1505.374</ele>
        <time>2013-05-06T13:13:34Z</time>
      </trkpt>
      <trkpt lat="44.15552" lon="5.31224">
        <ele>1508.703</ele>
        <time>2013-05-06T13:13:39Z</time>
      </trkpt>
      <trkpt lat="44.1557" lon="5.31239">
        <ele>1508.591</ele>
        <time>2013-05-06T13:13:47Z</time>
      </trkpt>
      <trkpt lat="44.15575" lon="5.31243">
        <ele>1510.965</ele>
        <time>2013-05-06T13:13:50Z</time>
      </trkpt>
      <trkpt lat="44.15587" lon="5.31253">
        <ele>1508.67</ele>
        <time>2013-05-06T13:13:56Z</time>
      </trkpt>
      <trkpt lat="44.15598" lon="5.31262">
        <ele>1509.831</ele>
        <time>2013-05-06T13:14:02Z</time>
      </trkpt>
      <trkpt lat="44.15608" lon="5.31269">
        <ele>1511.534</ele>
        <time>2013-05-06T13:14:07Z</time>
      </trkpt>
      <trkpt lat="44.15633" lon="5.31282">
        <ele>1512.791</ele>
        <time>2013-05-06T13:14:19Z</time>
      </trkpt>
      <trkpt lat="44.15658" lon="5.31294">
        <ele>1514.206</ele>
        <time>2013-05-06T13:14:30Z</time>
      </trkpt>
      <trkpt lat="44.15691" lon="5.31311">
        <ele>1516.944</ele>
        <time>2013-05-06T13:14:45Z</time>
      </trkpt>
      <trkpt lat="44.15718" lon="5.31325">
        <ele>1517.561</ele>
        <time>2013-05-06T13:14:57Z</time>
      </trkpt>
      <trkpt lat="44.15738" lon="5.31338">
        <ele>1519.604</ele>
        <time>2013-05-06T13:15:07Z</time>
      </trkpt>
      <trkpt lat="44.1576" lon="5.31347">
        <ele>1520.062</ele>
        <time>2013-05-06T13:15:17Z</time>
      </trkpt>
      <trkpt lat="44.15777" lon="5.31338">
        <ele>1521.732</ele>
        <time>2013-05-06T13:15:24Z</time>
      </trkpt>
      <trkpt lat="44.15783" lon="5.31316">
        <ele>1522.257</ele>
        <time>2013-05-06T13:15:30Z</time>
      </trkpt>
      <trkpt lat="44.15783" lon="5.3127">
        <ele>1524.734</ele>
        <time>2013-05-06T13:15:41Z</time>
      </trkpt>
      <trkpt lat="44.1578" lon="5.31227">
        <ele>1527.525</ele>
        <time>2013-05-06T13:15:53Z</time>
      </trkpt>
      <trkpt lat="44.15777" lon="5.3121">
        <ele>1530.706</ele>
        <time>2013-05-06T13:15:58Z</time>
      </trkpt>
      <trkpt lat="44.15766" lon="5.31179">
        <ele>1530.181</ele>
        <time>2013-05-06T13:16:07Z</time>
      </trkpt>
      <trkpt lat="44.15752" lon="5.31138">
        <ele>1533.195</ele>
        <time>2013-05-06T13:16:21Z</time>
      </trkpt>
      <trkpt lat="44.15746" lon="5.3111">
        <ele>1535.713</ele>
        <time>2013-05-06T13:16:30Z</time>
      </trkpt>
      <trkpt lat="44.15742" lon="5.31093">
        <ele>1537.701</ele>
        <time>2013-05-06T13:16:36Z</time>
      </trkpt>
      <trkpt lat="44.1574" lon="5.31078">
        <ele>1536.562</ele>
        <time>2013-05-06T13:16:41Z</time>
      </trkpt>
      <trkpt lat="44.1574" lon="5.31071">
        <ele>1537.607</ele>
        <time>2013-05-06T13:16:43Z</time>
      </trkpt>
      <trkpt lat="44.15742" lon="5.31041">
        <ele>1539.926</ele>
        <time>2013-05-06T13:16:52Z</time>
      </trkpt>
      <trkpt lat="44.15747" lon="5.31008">
        <ele>1541.123</ele>
        <time>2013-05-06T13:17:02Z</time>
      </trkpt>
      <trkpt lat="44.15756" lon="5.30969">
        <ele>1542.673</ele>
        <time>2013-05-06T13:17:14Z</time>
      </trkpt>
      <trkpt lat="44.15764" lon="5.30939">
        <ele>1546.015</ele>
        <time>2013-05-06T13:17:24Z</time>
      </trkpt>
      <trkpt lat="44.15769" lon="5.30925">
        <ele>1547.938</ele>
        <time>2013-05-06T13:17:29Z</time>
      </trkpt>
      <trkpt lat="44.15784" lon="5.30894">
        <ele>1550.198</ele>
        <time>2013-05-06T13:17:41Z</time>
      </trkpt>
      <trkpt lat="44.15803" lon="5.30869">
        <ele>1552.1</ele>
        <time>2013-05-06T13:17:53Z</time>
      </trkpt>
      <trkpt lat="44.15816" lon="5.30853">
        <ele>1552.729</ele>
        <time>2013-05-06T13:18:01Z</time>
      </trkpt>
      <trkpt lat="44.15827" lon="5.30846">
        <ele>1554.473</ele>
        <time>2013-05-06T13:18:06Z</time>
      </trkpt>
      <trkpt lat="44.15844" lon="5.30836">
        <ele>1556.249</ele>
        <time>2013-05-06T13:18:14Z</time>
      </trkpt>
      <trkpt lat="44.1587" lon="5.30822">
        <ele>1558.589</ele>
        <time>2013-05-06T13:18:26Z</time>
      </trkpt>
      <trkpt lat="44.15902" lon="5.30812">
        <ele>1559.227</ele>
        <time>2013-05-06T13:18:40Z</time>
      </trkpt>
      <trkpt lat="44.1592" lon="5.30813">
        <ele>1562.955</ele>
        <time>2013-05-06T13:18:48Z</time>
      </trkpt>
      <trkpt lat="44.15947" lon="5.30817">
        <ele>1565.151</ele>
        <time>2013-05-06T13:19:00Z</time>
      </trkpt>
      <trkpt lat="44.15966" lon="5.30819">
        <ele>1567.081</ele>
        <time>2013-05-06T13:19:08Z</time>
      </trkpt>
      <trkpt lat="44.1599" lon="5.30822">
        <ele>1567.643</ele>
        <time>2013-05-06T13:19:19Z</time>
      </trkpt>
      <trkpt lat="44.16015" lon="5.30819">
        <ele>1568.352</ele>
        <time>2013-05-06T13:19:31Z</time>
      </trkpt>
      <trkpt lat="44.16028" lon="5.30803">
        <ele>1568.233</ele>
        <time>2013-05-06T13:19:39Z</time>
      </trkpt>
      <trkpt lat="44.16024" lon="5.30786">
        <ele>1569.109</ele>
        <time>2013-05-06T13:19:45Z</time>
      </trkpt>
      <trkpt lat="44.16014" lon="5.30755">
        <ele>1571.851</ele>
        <time>2013-05-06T13:19:55Z</time>
      </trkpt>
      <trkpt lat="44.15998" lon="5.30712">
        <ele>1575.05</ele>
        <time>2013-05-06T13:20:08Z</time>
      </trkpt>
      <trkpt lat="44.15985" lon="5.30673">
        <ele>1576.469</ele>
        <time>2013-05-06T13:20:20Z</time>
      </trkpt>
      <trkpt lat="44.15982" lon="5.3066">
        <ele>1578.427</ele>
        <time>2013-05-06T13:20:24Z</time>
      </trkpt>
      <trkpt lat="44.15974" lon="5.30621">
        <ele>1579.519</ele>
        <time>2013-05-06T13:20:35Z</time>
      </trkpt>
      <trkpt lat="44.15967" lon="5.30577">
        <ele>1582.46</ele>
        <time>2013-05-06T13:20:48Z</time>
      </trkpt>
      <trkpt lat="44.15963" lon="5.30532">
        <ele>1585.242</ele>
        <time>2013-05-06T13:21:01Z</time>
      </trkpt>
      <trkpt lat="44.15972" lon="5.30489">
        <ele>1587.83</ele>
        <time>2013-05-06T13:21:14Z</time>
      </trkpt>
      <trkpt lat="44.15982" lon="5.30437">
        <ele>1588.927</ele>
        <time>2013-05-06T13:21:30Z</time>
      </trkpt>
      <trkpt lat="44.15985" lon="5.30423">
        <ele>1590.636</ele>
        <time>2013-05-06T13:21:34Z</time>
      </trkpt>
      <trkpt lat="44.15988" lon="5.30408">
        <ele>1592.932</ele>
        <time>2013-05-06T13:21:38Z</time>
      </trkpt>
      <trkpt lat="44.15995" lon="5.30369">
        <ele>1593.597</ele>
        <time>2013-05-06T13:21:50Z</time>
      </trkpt>
      <trkpt lat="44.16004" lon="5.3033">
        <ele>1594.869</ele>
        <time>2013-05-06T13:22:02Z</time>
      </trkpt>
      <trkpt lat="44.16012" lon="5.30306">
        <ele>1595.866</ele>
        <time>2013-05-06T13:22:10Z</time>
      </trkpt>
      <trkpt lat="44.16017" lon="5.30294">
        <ele>1597.844</ele>
        <time>2013-05-06T13:22:14Z</time>
      </trkpt>
      <trkpt lat="44.16024" lon="5.30272">
        <ele>1599.428</ele>
        <time>2013-05-06T13:22:21Z</time>
      </trkpt>
      <trkpt lat="44.16035" lon="5.30242">
        <ele>1601.546</ele>
        <time>2013-05-06T13:22:31Z</time>
      </trkpt>
      <trkpt lat="44.16047" lon="5.30208">
        <ele>1604.365</ele>
        <time>2013-05-06T13:22:43Z</time>
      </trkpt>
      <trkpt lat="44.16057" lon="5.30181">
        <ele>1606.422</ele>
        <time>2013-05-06T13:22:53Z</time>
      </trkpt>
      <trkpt lat="44.16071" lon="5.30154">
        <ele>1608.044</ele>
        <time>2013-05-06T13:23:04Z</time>
      </trkpt>
      <trkpt lat="44.16084" lon="5.30137">
        <ele>1609.926</ele>
        <time>2013-05-06T13:23:12Z</time>
      </trkpt>
      <trkpt lat="44.16104" lon="5.30119">
        <ele>1611.646</ele>
        <time>2013-05-06T13:23:23Z</time>
      </trkpt>
      <trkpt lat="44.16122" lon="5.30103">
        <ele>1612.596</ele>
        <time>2013-05-06T13:23:33Z</time>
      </trkpt>
      <trkpt lat="44.16142" lon="5.30089">
        <ele>1614.358</ele>
        <time>2013-05-06T13:23:44Z</time>
      </trkpt>
      <trkpt lat="44.16162" lon="5.30075">
        <ele>1617.618</ele>
        <time>2013-05-06T13:23:55Z</time>
      </trkpt>
      <trkpt lat="44.16167" lon="5.30074">
        <ele>1618.38</ele>
        <time>2013-05-06T13:23:57Z</time>
      </trkpt>
      <trkpt lat="44.16173" lon="5.30076">
        <ele>1619.526</ele>
        <time>2013-05-06T13:24:01Z</time>
      </trkpt>
      <trkpt lat="44.16178" lon="5.30078">
        <ele>1620.665</ele>
        <time>2013-05-06T13:24:05Z</time>
      </trkpt>
      <trkpt lat="44.16192" lon="5.30089">
        <ele>1622.553</ele>
        <time>2013-05-06T13:24:14Z</time>
      </trkpt>
      <trkpt lat="44.16203" lon="5.30108">
        <ele>1625.536</ele>
        <time>2013-05-06T13:24:23Z</time>
      </trkpt>
      <trkpt lat="44.16209" lon="5.3012">
        <ele>1629.136</ele>
        <time>2013-05-06T13:24:27Z</time>
      </trkpt>
      <trkpt lat="44.16211" lon="5.30123">
        <ele>1629.054</ele>
        <time>2013-05-06T13:24:28Z</time>
      </trkpt>
      <trkpt lat="44.16218" lon="5.30136">
        <ele>1629.648</ele>
        <time>2013-05-06T13:24:33Z</time>
      </trkpt>
      <trkpt lat="44.16223" lon="5.30145">
        <ele>1628.485</ele>
        <time>2013-05-06T13:24:37Z</time>
      </trkpt>
      <trkpt lat="44.16225" lon="5.30149">
        <ele>1627.222</ele>
        <time>2013-05-06T13:24:39Z</time>
      </trkpt>
      <trkpt lat="44.16232" lon="5.30162">
        <ele>1628.284</ele>
        <time>2013-05-06T13:24:45Z</time>
      </trkpt>
      <trkpt lat="44.16244" lon="5.30183">
        <ele>1630.966</ele>
        <time>2013-05-06T13:24:54Z</time>
      </trkpt>
      <trkpt lat="44.16257" lon="5.30207">
        <ele>1634.385</ele>
        <time>2013-05-06T13:25:04Z</time>
      </trkpt>
      <trkpt lat="44.16274" lon="5.3023">
        <ele>1636.143</ele>
        <time>2013-05-06T13:25:15Z</time>
      </trkpt>
      <trkpt lat="44.16295" lon="5.3025">
        <ele>1637.914</ele>
        <time>2013-05-06T13:25:27Z</time>
      </trkpt>
      <trkpt lat="44.16315" lon="5.30251">
        <ele>1637.687</ele>
        <time>2013-05-06T13:25:35Z</time>
      </trkpt>
      <trkpt lat="44.16337" lon="5.30237">
        <ele>1638.751</ele>
        <time>2013-05-06T13:25:44Z</time>
      </trkpt>
      <trkpt lat="44.16365" lon="5.30218">
        <ele>1639.67</ele>
        <time>2013-05-06T13:25:56Z</time>
      </trkpt>
      <trkpt lat="44.16383" lon="5.30197">
        <ele>1642.418</ele>
        <time>2013-05-06T13:26:07Z</time>
      </trkpt>
      <trkpt lat="44.16399" lon="5.30179">
        <ele>1644.018</ele>
        <time>2013-05-06T13:26:16Z</time>
      </trkpt>
      <trkpt lat="44.1641" lon="5.3015">
        <ele>1645.759</ele>
        <time>2013-05-06T13:26:25Z</time>
      </trkpt>
      <trkpt lat="44.1642" lon="5.30119">
        <ele>1646.8</ele>
        <time>2013-05-06T13:26:36Z</time>
      </trkpt>
      <trkpt lat="44.16432" lon="5.30086">
        <ele>1647.947</ele>
        <time>2013-05-06T13:26:47Z</time>
      </trkpt>
      <trkpt lat="44.16443" lon="5.30053">
        <ele>1650.996</ele>
        <time>2013-05-06T13:26:58Z</time>
      </trkpt>
      <trkpt lat="44.16455" lon="5.30017">
        <ele>1652.271</ele>
        <time>2013-05-06T13:27:11Z</time>
      </trkpt>
      <trkpt lat="44.16465" lon="5.2999">
        <ele>1655.01</ele>
        <time>2013-05-06T13:27:21Z</time>
      </trkpt>
      <trkpt lat="44.16476" lon="5.29961">
        <ele>1656.354</ele>
        <time>2013-05-06T13:27:31Z</time>
      </trkpt>
      <trkpt lat="44.1648" lon="5.29949">
        <ele>1657.916</ele>
        <time>2013-05-06T13:27:35Z</time>
      </trkpt>
      <trkpt lat="44.16488" lon="5.29931">
        <ele>1659.381</ele>
        <time>2013-05-06T13:27:42Z</time>
      </trkpt>
      <trkpt lat="44.16492" lon="5.2992">
        <ele>1660.854</ele>
        <time>2013-05-06T13:27:46Z</time>
      </trkpt>
      <trkpt lat="44.16505" lon="5.29888">
        <ele>1662.604</ele>
        <time>2013-05-06T13:27:58Z</time>
      </trkpt>
      <trkpt lat="44.1651" lon="5.2987">
        <ele>1665.392</ele>
        <time>2013-05-06T13:28:05Z</time>
      </trkpt>
      <trkpt lat="44.16518" lon="5.29838">
        <ele>1666.031</ele>
        <time>2013-05-06T13:28:17Z</time>
      </trkpt>
      <trkpt lat="44.16525" lon="5.29806">
        <ele>1668.69</ele>
        <time>2013-05-06T13:28:29Z</time>
      </trkpt>
      <trkpt lat="44.16533" lon="5.29771">
        <ele>1669.563</ele>
        <time>2013-05-06T13:28:42Z</time>
      </trkpt>
      <trkpt lat="44.16536" lon="5.29756">
        <ele>1671.604</ele>
        <time>2013-05-06T13:28:48Z</time>
      </trkpt>
      <trkpt lat="44.16538" lon="5.2975">
        <ele>1673.848</ele>
        <time>2013-05-06T13:28:50Z</time>
      </trkpt>
      <trkpt lat="44.16549" lon="5.29729">
        <ele>1673.716</ele>
        <time>2013-05-06T13:29:00Z</time>
      </trkpt>
      <trkpt lat="44.1655" lon="5.29726">
        <ele>1673.636</ele>
        <time>2013-05-06T13:29:01Z</time>
      </trkpt>
      <trkpt lat="44.16557" lon="5.29714">
        <ele>1674.984</ele>
        <time>2013-05-06T13:29:06Z</time>
      </trkpt>
      <trkpt lat="44.16573" lon="5.29692">
        <ele>1676.835</ele>
        <time>2013-05-06T13:29:16Z</time>
      </trkpt>
      <trkpt lat="44.16595" lon="5.29676">
        <ele>1679.845</ele>
        <time>2013-05-06T13:29:26Z</time>
      </trkpt>
      <trkpt lat="44.16614" lon="5.29664">
        <ele>1681.719</ele>
        <time>2013-05-06T13:29:35Z</time>
      </trkpt>
      <trkpt lat="44.16631" lon="5.29654">
        <ele>1684.101</ele>
        <time>2013-05-06T13:29:44Z</time>
      </trkpt>
      <trkpt lat="44.16638" lon="5.2965">
        <ele>1687.988</ele>
        <time>2013-05-06T13:29:48Z</time>
      </trkpt>
      <trkpt lat="44.16656" lon="5.29639">
        <ele>1688.261</ele>
        <time>2013-05-06T13:29:58Z</time>
      </trkpt>
      <trkpt lat="44.16673" lon="5.29629">
        <ele>1689.724</ele>
        <time>2013-05-06T13:30:08Z</time>
      </trkpt>
      <trkpt lat="44.1669" lon="5.29618">
        <ele>1691.185</ele>
        <time>2013-05-06T13:30:18Z</time>
      </trkpt>
      <trkpt lat="44.16711" lon="5.29598">
        <ele>1691.454</ele>
        <time>2013-05-06T13:30:31Z</time>
      </trkpt>
      <trkpt lat="44.16717" lon="5.29591">
        <ele>1692.972</ele>
        <time>2013-05-06T13:30:35Z</time>
      </trkpt>
      <trkpt lat="44.16731" lon="5.29575">
        <ele>1693.616</ele>
        <time>2013-05-06T13:30:45Z</time>
      </trkpt>
      <trkpt lat="44.1675" lon="5.29553">
        <ele>1696.74</ele>
        <time>2013-05-06T13:30:57Z</time>
      </trkpt>
      <trkpt lat="44.16755" lon="5.29545">
        <ele>1697.856</ele>
        <time>2013-05-06T13:31:01Z</time>
      </trkpt>
      <trkpt lat="44.16762" lon="5.29529">
        <ele>1699.282</ele>
        <time>2013-05-06T13:31:08Z</time>
      </trkpt>
      <trkpt lat="44.16765" lon="5.29522">
        <ele>1696.743</ele>
        <time>2013-05-06T13:31:11Z</time>
      </trkpt>
      <trkpt lat="44.16766" lon="5.29501">
        <ele>1698.182</ele>
        <time>2013-05-06T13:31:19Z</time>
      </trkpt>
      <trkpt lat="44.16766" lon="5.29498">
        <ele>1697.978</ele>
        <time>2013-05-06T13:31:20Z</time>
      </trkpt>
      <trkpt lat="44.16761" lon="5.29472">
        <ele>1699.221</ele>
        <time>2013-05-06T13:31:30Z</time>
      </trkpt>
      <trkpt lat="44.1675" lon="5.2944">
        <ele>1700.665</ele>
        <time>2013-05-06T13:31:42Z</time>
      </trkpt>
      <trkpt lat="44.16734" lon="5.29406">
        <ele>1703.091</ele>
        <time>2013-05-06T13:31:55Z</time>
      </trkpt>
      <trkpt lat="44.16715" lon="5.29367">
        <ele>1705.487</ele>
        <time>2013-05-06T13:32:11Z</time>
      </trkpt>
      <trkpt lat="44.16711" lon="5.29341">
        <ele>1708.518</ele>
        <time>2013-05-06T13:32:20Z</time>
      </trkpt>
      <trkpt lat="44.1671" lon="5.29311">
        <ele>1710.282</ele>
        <time>2013-05-06T13:32:30Z</time>
      </trkpt>
      <trkpt lat="44.16713" lon="5.29271">
        <ele>1713.16</ele>
        <time>2013-05-06T13:32:43Z</time>
      </trkpt>
      <trkpt lat="44.16721" lon="5.29246">
        <ele>1715.206</ele>
        <time>2013-05-06T13:32:51Z</time>
      </trkpt>
      <trkpt lat="44.16729" lon="5.29232">
        <ele>1715.431</ele>
        <time>2013-05-06T13:32:57Z</time>
      </trkpt>
      <trkpt lat="44.16745" lon="5.29205">
        <ele>1717.622</ele>
        <time>2013-05-06T13:33:09Z</time>
      </trkpt>
      <trkpt lat="44.16749" lon="5.29203">
        <ele>1718.792</ele>
        <time>2013-05-06T13:33:11Z</time>
      </trkpt>
      <trkpt lat="44.1677" lon="5.29187">
        <ele>1721.466</ele>
        <time>2013-05-06T13:33:23Z</time>
      </trkpt>
      <trkpt lat="44.16787" lon="5.29181">
        <ele>1724.196</ele>
        <time>2013-05-06T13:33:32Z</time>
      </trkpt>
      <trkpt lat="44.16804" lon="5.29173">
        <ele>1725.004</ele>
        <time>2013-05-06T13:33:42Z</time>
      </trkpt>
      <trkpt lat="44.1682" lon="5.29167">
        <ele>1725.109</ele>
        <time>2013-05-06T13:33:51Z</time>
      </trkpt>
      <trkpt lat="44.16831" lon="5.29163">
        <ele>1728.205</ele>
        <time>2013-05-06T13:33:57Z</time>
      </trkpt>
      <trkpt lat="44.16832" lon="5.29162">
        <ele>1728.204</ele>
        <time>2013-05-06T13:33:58Z</time>
      </trkpt>
      <trkpt lat="44.16848" lon="5.29155">
        <ele>1729.179</ele>
        <time>2013-05-06T13:34:07Z</time>
      </trkpt>
      <trkpt lat="44.16855" lon="5.29153">
        <ele>1727.955</ele>
        <time>2013-05-06T13:34:11Z</time>
      </trkpt>
      <trkpt lat="44.16858" lon="5.29151">
        <ele>1729.57</ele>
        <time>2013-05-06T13:34:13Z</time>
      </trkpt>
      <trkpt lat="44.1687" lon="5.29146">
        <ele>1732.585</ele>
        <time>2013-05-06T13:34:20Z</time>
      </trkpt>
      <trkpt lat="44.1688" lon="5.29142">
        <ele>1732.658</ele>
        <time>2013-05-06T13:34:26Z</time>
      </trkpt>
      <trkpt lat="44.16896" lon="5.29136">
        <ele>1734.917</ele>
        <time>2013-05-06T13:34:34Z</time>
      </trkpt>
      <trkpt lat="44.16907" lon="5.29131">
        <ele>1736.563</ele>
        <time>2013-05-06T13:34:40Z</time>
      </trkpt>
      <trkpt lat="44.16911" lon="5.2913">
        <ele>1735.498</ele>
        <time>2013-05-06T13:34:42Z</time>
      </trkpt>
      <trkpt lat="44.16926" lon="5.29123">
        <ele>1738.277</ele>
        <time>2013-05-06T13:34:50Z</time>
      </trkpt>
      <trkpt lat="44.16941" lon="5.29109">
        <ele>1740.459</ele>
        <time>2013-05-06T13:34:59Z</time>
      </trkpt>
      <trkpt lat="44.16943" lon="5.29107">
        <ele>1740.699</ele>
        <time>2013-05-06T13:35:00Z</time>
      </trkpt>
      <trkpt lat="44.16943" lon="5.29093">
        <ele>1743.123</ele>
        <time>2013-05-06T13:35:08Z</time>
      </trkpt>
      <trkpt lat="44.16935" lon="5.2907">
        <ele>1743.548</ele>
        <time>2013-05-06T13:35:17Z</time>
      </trkpt>
      <trkpt lat="44.16919" lon="5.29049">
        <ele>1744.594</ele>
        <time>2013-05-06T13:35:26Z</time>
      </trkpt>
      <trkpt lat="44.16903" lon="5.29027">
        <ele>1745.454</ele>
        <time>2013-05-06T13:35:36Z</time>
      </trkpt>
      <trkpt lat="44.1688" lon="5.28997">
        <ele>1747.053</ele>
        <time>2013-05-06T13:35:49Z</time>
      </trkpt>
      <trkpt lat="44.16869" lon="5.2897">
        <ele>1749.919</ele>
        <time>2013-05-06T13:35:59Z</time>
      </trkpt>
      <trkpt lat="44.16862" lon="5.28931">
        <ele>1751.91</ele>
        <time>2013-05-06T13:36:11Z</time>
      </trkpt>
      <trkpt lat="44.16861" lon="5.28909">
        <ele>1754.079</ele>
        <time>2013-05-06T13:36:16Z</time>
      </trkpt>
      <trkpt lat="44.16865" lon="5.28879">
        <ele>1755.739</ele>
        <time>2013-05-06T13:36:24Z</time>
      </trkpt>
      <trkpt lat="44.16866" lon="5.28876">
        <ele>1755.983</ele>
        <time>2013-05-06T13:36:25Z</time>
      </trkpt>
      <trkpt lat="44.1687" lon="5.28844">
        <ele>1757.192</ele>
        <time>2013-05-06T13:36:35Z</time>
      </trkpt>
      <trkpt lat="44.16876" lon="5.28812">
        <ele>1758.961</ele>
        <time>2013-05-06T13:36:47Z</time>
      </trkpt>
      <trkpt lat="44.1688" lon="5.28787">
        <ele>1760.352</ele>
        <time>2013-05-06T13:36:56Z</time>
      </trkpt>
      <trkpt lat="44.16886" lon="5.28762">
        <ele>1762.405</ele>
        <time>2013-05-06T13:37:06Z</time>
      </trkpt>
      <trkpt lat="44.16895" lon="5.28737">
        <ele>1763.947</ele>
        <time>2013-05-06T13:37:16Z</time>
      </trkpt>
      <trkpt lat="44.16907" lon="5.2871">
        <ele>1766.034</ele>
        <time>2013-05-06T13:37:27Z</time>
      </trkpt>
      <trkpt lat="44.16919" lon="5.28683">
        <ele>1767.423</ele>
        <time>2013-05-06T13:37:37Z</time>
      </trkpt>
      <trkpt lat="44.16932" lon="5.28655">
        <ele>1769.301</ele>
        <time>2013-05-06T13:37:50Z</time>
      </trkpt>
      <trkpt lat="44.1694" lon="5.28642">
        <ele>1771.159</ele>
        <time>2013-05-06T13:37:57Z</time>
      </trkpt>
      <trkpt lat="44.16948" lon="5.28629">
        <ele>1772.651</ele>
        <time>2013-05-06T13:38:04Z</time>
      </trkpt>
      <trkpt lat="44.16961" lon="5.28612">
        <ele>1773.497</ele>
        <time>2013-05-06T13:38:14Z</time>
      </trkpt>
      <trkpt lat="44.16976" lon="5.28598">
        <ele>1775.688</ele>
        <time>2013-05-06T13:38:24Z</time>
      </trkpt>
      <trkpt lat="44.16989" lon="5.28585">
        <ele>1777.205</ele>
        <time>2013-05-06T13:38:33Z</time>
      </trkpt>
      <trkpt lat="44.17005" lon="5.2857">
        <ele>1780.178</ele>
        <time>2013-05-06T13:38:44Z</time>
      </trkpt>
      <trkpt lat="44.17019" lon="5.28557">
        <ele>1781.859</ele>
        <time>2013-05-06T13:38:54Z</time>
      </trkpt>
      <trkpt lat="44.17028" lon="5.28548">
        <ele>1784.148</ele>
        <time>2013-05-06T13:39:01Z</time>
      </trkpt>
      <trkpt lat="44.17041" lon="5.28536">
        <ele>1785.937</ele>
        <time>2013-05-06T13:39:10Z</time>
      </trkpt>
      <trkpt lat="44.17048" lon="5.28529">
        <ele>1787.226</ele>
        <time>2013-05-06T13:39:15Z</time>
      </trkpt>
      <trkpt lat="44.17062" lon="5.28511">
        <ele>1789.775</ele>
        <time>2013-05-06T13:39:26Z</time>
      </trkpt>
      <trkpt lat="44.17067" lon="5.28503">
        <ele>1791.545</ele>
        <time>2013-05-06T13:39:30Z</time>
      </trkpt>
      <trkpt lat="44.17082" lon="5.28483">
        <ele>1792.889</ele>
        <time>2013-05-06T13:39:42Z</time>
      </trkpt>
      <trkpt lat="44.17099" lon="5.28462">
        <ele>1795.428</ele>
        <time>2013-05-06T13:39:55Z</time>
      </trkpt>
      <trkpt lat="44.17117" lon="5.28447">
        <ele>1799.125</ele>
        <time>2013-05-06T13:40:07Z</time>
      </trkpt>
      <trkpt lat="44.17135" lon="5.28439">
        <ele>1800.268</ele>
        <time>2013-05-06T13:40:17Z</time>
      </trkpt>
      <trkpt lat="44.17138" lon="5.28438">
        <ele>1798.138</ele>
        <time>2013-05-06T13:40:19Z</time>
      </trkpt>
      <trkpt lat="44.17145" lon="5.28435">
        <ele>1795.297</ele>
        <time>2013-05-06T13:40:23Z</time>
      </trkpt>
      <trkpt lat="44.17147" lon="5.28434">
        <ele>1799.929</ele>
        <time>2013-05-06T13:40:24Z</time>
      </trkpt>
      <trkpt lat="44.17165" lon="5.28428">
        <ele>1802.688</ele>
        <time>2013-05-06T13:40:33Z</time>
      </trkpt>
      <trkpt lat="44.17169" lon="5.28427">
        <ele>1804.208</ele>
        <time>2013-05-06T13:40:35Z</time>
      </trkpt>
      <trkpt lat="44.17187" lon="5.28424">
        <ele>1805.909</ele>
        <time>2013-05-06T13:40:45Z</time>
      </trkpt>
      <trkpt lat="44.17206" lon="5.28421">
        <ele>1805.912</ele>
        <time>2013-05-06T13:40:55Z</time>
      </trkpt>
      <trkpt lat="44.17213" lon="5.2842">
        <ele>1807.437</ele>
        <time>2013-05-06T13:40:59Z</time>
      </trkpt>
      <trkpt lat="44.17218" lon="5.28419">
        <ele>1808.956</ele>
        <time>2013-05-06T13:41:02Z</time>
      </trkpt>
      <trkpt lat="44.17234" lon="5.28416">
        <ele>1808.159</ele>
        <time>2013-05-06T13:41:11Z</time>
      </trkpt>
      <trkpt lat="44.17249" lon="5.28413">
        <ele>1810.031</ele>
        <time>2013-05-06T13:41:19Z</time>
      </trkpt>
      <trkpt lat="44.1726" lon="5.28411">
        <ele>1813.798</ele>
        <time>2013-05-06T13:41:26Z</time>
      </trkpt>
      <trkpt lat="44.17265" lon="5.2841">
        <ele>1816.815</ele>
        <time>2013-05-06T13:41:29Z</time>
      </trkpt>
      <trkpt lat="44.17282" lon="5.28407">
        <ele>1818.081</ele>
        <time>2013-05-06T13:41:39Z</time>
      </trkpt>
      <trkpt lat="44.17287" lon="5.28407">
        <ele>1819.907</ele>
        <time>2013-05-06T13:41:42Z</time>
      </trkpt>
      <trkpt lat="44.17303" lon="5.28404">
        <ele>1820.686</ele>
        <time>2013-05-06T13:41:52Z</time>
      </trkpt>
      <trkpt lat="44.17318" lon="5.28401">
        <ele>1822.439</ele>
        <time>2013-05-06T13:42:01Z</time>
      </trkpt>
      <trkpt lat="44.1733" lon="5.28399">
        <ele>1824.46</ele>
        <time>2013-05-06T13:42:08Z</time>
      </trkpt>
      <trkpt lat="44.1735" lon="5.28396">
        <ele>1825.92</ele>
        <time>2013-05-06T13:42:20Z</time>
      </trkpt>
      <trkpt lat="44.17364" lon="5.28393">
        <ele>1828.409</ele>
        <time>2013-05-06T13:42:28Z</time>
      </trkpt>
      <trkpt lat="44.17379" lon="5.2839">
        <ele>1829.529</ele>
        <time>2013-05-06T13:42:35Z</time>
      </trkpt>
      <trkpt lat="44.17388" lon="5.28389">
        <ele>1832.807</ele>
        <time>2013-05-06T13:42:40Z</time>
      </trkpt>
      <trkpt lat="44.1739" lon="5.28389">
        <ele>1832.806</ele>
        <time>2013-05-06T13:42:41Z</time>
      </trkpt>
      <trkpt lat="44.1741" lon="5.28382">
        <ele>1833.425</ele>
        <time>2013-05-06T13:42:52Z</time>
      </trkpt>
      <trkpt lat="44.17418" lon="5.28378">
        <ele>1835.91</ele>
        <time>2013-05-06T13:42:57Z</time>
      </trkpt>
      <trkpt lat="44.17422" lon="5.28364">
        <ele>1837.32</ele>
        <time>2013-05-06T13:43:05Z</time>
      </trkpt>
      <trkpt lat="44.17425" lon="5.28344">
        <ele>1840.64</ele>
        <time>2013-05-06T13:43:12Z</time>
      </trkpt>
      <trkpt lat="44.17424" lon="5.28319">
        <ele>1840.62</ele>
        <time>2013-05-06T13:43:23Z</time>
      </trkpt>
      <trkpt lat="44.17422" lon="5.2831">
        <ele>1841.633</ele>
        <time>2013-05-06T13:43:27Z</time>
      </trkpt>
      <trkpt lat="44.17421" lon="5.28298">
        <ele>1843.642</ele>
        <time>2013-05-06T13:43:32Z</time>
      </trkpt>
      <trkpt lat="44.17417" lon="5.28278">
        <ele>1843.963</ele>
        <time>2013-05-06T13:43:41Z</time>
      </trkpt>
      <trkpt lat="44.17415" lon="5.28266">
        <ele>1846.481</ele>
        <time>2013-05-06T13:43:46Z</time>
      </trkpt>
      <trkpt lat="44.1741" lon="5.28241">
        <ele>1846.806</ele>
        <time>2013-05-06T13:43:56Z</time>
      </trkpt>
      <trkpt lat="44.17408" lon="5.28231">
        <ele>1848.921</ele>
        <time>2013-05-06T13:44:00Z</time>
      </trkpt>
      <trkpt lat="44.17403" lon="5.28206">
        <ele>1850.466</ele>
        <time>2013-05-06T13:44:10Z</time>
      </trkpt>
      <trkpt lat="44.17398" lon="5.28178">
        <ele>1851.314</ele>
        <time>2013-05-06T13:44:20Z</time>
      </trkpt>
      <trkpt lat="44.17395" lon="5.28165">
        <ele>1852.605</ele>
        <time>2013-05-06T13:44:25Z</time>
      </trkpt>
      <trkpt lat="44.1739" lon="5.28141">
        <ele>1853.742</ele>
        <time>2013-05-06T13:44:35Z</time>
      </trkpt>
      <trkpt lat="44.17386" lon="5.28119">
        <ele>1855.855</ele>
        <time>2013-05-06T13:44:44Z</time>
      </trkpt>
      <trkpt lat="44.17381" lon="5.28096">
        <ele>1858.332</ele>
        <time>2013-05-06T13:44:54Z</time>
      </trkpt>
      <trkpt lat="44.17375" lon="5.28074">
        <ele>1859.989</ele>
        <time>2013-05-06T13:45:03Z</time>
      </trkpt>
      <trkpt lat="44.17368" lon="5.28055">
        <ele>1861.418</ele>
        <time>2013-05-06T13:45:11Z</time>
      </trkpt>
      <trkpt lat="44.17356" lon="5.28028">
        <ele>1864.663</ele>
        <time>2013-05-06T13:45:23Z</time>
      </trkpt>
      <trkpt lat="44.17347" lon="5.28009">
        <ele>1865.933</ele>
        <time>2013-05-06T13:45:31Z</time>
      </trkpt>
      <trkpt lat="44.17337" lon="5.27986">
        <ele>1867.93</ele>
        <time>2013-05-06T13:45:40Z</time>
      </trkpt>
      <trkpt lat="44.17333" lon="5.27977">
        <ele>1869.836</ele>
        <time>2013-05-06T13:45:43Z</time>
      </trkpt>
      <trkpt lat="44.1732" lon="5.27949">
        <ele>1871.315</ele>
        <time>2013-05-06T13:45:54Z</time>
      </trkpt>
      <trkpt lat="44.1731" lon="5.27927">
        <ele>1872.85</ele>
        <time>2013-05-06T13:46:03Z</time>
      </trkpt>
      <trkpt lat="44.17308" lon="5.27923">
        <ele>1874.016</ele>
        <time>2013-05-06T13:46:05Z</time>
      </trkpt>
      <trkpt lat="44.17301" lon="5.27902">
        <ele>1875.331</ele>
        <time>2013-05-06T13:46:14Z</time>
      </trkpt>
      <trkpt lat="44.17299" lon="5.27887">
        <ele>1878.481</ele>
        <time>2013-05-06T13:46:20Z</time>
      </trkpt>
      <trkpt lat="44.17298" lon="5.27865">
        <ele>1878.57</ele>
        <time>2013-05-06T13:46:26Z</time>
      </trkpt>
      <trkpt lat="44.17298" lon="5.27842">
        <ele>1879.463</ele>
        <time>2013-05-06T13:46:34Z</time>
      </trkpt>
      <trkpt lat="44.17303" lon="5.27812">
        <ele>1882.793</ele>
        <time>2013-05-06T13:46:44Z</time>
      </trkpt>
      <trkpt lat="44.17312" lon="5.27783">
        <ele>1883.145</ele>
        <time>2013-05-06T13:46:55Z</time>
      </trkpt>
      <trkpt lat="44.17321" lon="5.27756">
        <ele>1885.392</ele>
        <time>2013-05-06T13:47:04Z</time>
      </trkpt>
      <trkpt lat="44.1733" lon="5.27728">
        <ele>1887.695</ele>
        <time>2013-05-06T13:47:14Z</time>
      </trkpt>
      <trkpt lat="44.17348" lon="5.27734">
        <ele>1891.399</ele>
        <time>2013-05-06T13:47:22Z</time>
      </trkpt>
      <trkpt lat="44.17349" lon="5.27733">
        <ele>1891.906</ele>
        <time>2013-05-06T13:47:23Z</time>
      </trkpt>
      <trkpt lat="44.17353" lon="5.27731">
        <ele>1892.782</ele>
        <time>2013-05-06T13:47:25Z</time>
      </trkpt>
      <trkpt lat="44.17351" lon="5.27718">
        <ele>1893.786</ele>
        <time>2013-05-06T13:47:31Z</time>
      </trkpt>
      <trkpt lat="44.17353" lon="5.27743">
        <ele>1896.758</ele>
        <time>2013-05-06T13:47:40Z</time>
      </trkpt>
      <trkpt lat="44.17352" lon="5.27758">
        <ele>1901.063</ele>
        <time>2013-05-06T13:47:45Z</time>
      </trkpt>
      <trkpt lat="44.17349" lon="5.27793">
        <ele>1902.557</ele>
        <time>2013-05-06T13:47:56Z</time>
      </trkpt>
      <trkpt lat="44.17349" lon="5.27816">
        <ele>1903.266</ele>
        <time>2013-05-06T13:48:02Z</time>
      </trkpt>
      <trkpt lat="44.17349" lon="5.27836">
        <ele>1902.219</ele>
        <time>2013-05-06T13:48:09Z</time>
      </trkpt>
      <trkpt lat="44.17349" lon="5.27844">
        <ele>1902.707</ele>
        <time>2013-05-06T13:48:13Z</time>
      </trkpt>
      <trkpt lat="44.17349" lon="5.27856">
        <ele>1902.31</ele>
        <time>2013-05-06T13:48:19Z</time>
      </trkpt>
      <trkpt lat="44.17352" lon="5.27866">
        <ele>1902.053</ele>
        <time>2013-05-06T13:48:23Z</time>
      </trkpt>
      <trkpt lat="44.17337" lon="5.27865">
        <ele>1904.365</ele>
        <time>2013-05-06T13:48:27Z</time>
      </trkpt>
      <trkpt lat="44.17335" lon="5.2786">
        <ele>1904.198</ele>
        <time>2013-05-06T13:48:29Z</time>
      </trkpt>
      <trkpt lat="44.17349" lon="5.27846">
        <ele>1904.013</ele>
        <time>2013-05-06T13:48:36Z</time>
      </trkpt>
      <trkpt lat="44.17349" lon="5.27846">
        <ele>1904.334</ele>
        <time>2013-05-06T13:48:44Z</time>
      </trkpt>
      <trkpt lat="44.17349" lon="5.27846">
        <ele>1903.802</ele>
        <time>2013-05-06T13:48:47Z</time>
      </trkpt>
      <trkpt lat="44.17349" lon="5.27845">
        <ele>1902.598</ele>
        <time>2013-05-06T13:48:48Z</time>
      </trkpt>
    </trkseg>
  </trk>
</gpx>